sensor_id;sensor_type;location;lat;lon;timestamp;temperature;humidity
19397;DHT22;9834;48.076;11.878;2023-05-14T00:02:15;9.70;99.90
19397;DHT22;9834;48.076;11.878;2023-05-14T00:04:44;9.70;99.90
19397;DHT22;9834;48.076;11.878;2023-05-14T00:07:10;9.70;99.90
19397;DHT22;9834;48.076;11.878;2023-05-14T00:09:38;9.70;99.90
19397;DHT22;9834;48.076;11.878;2023-05-14T00:12:05;9.80;99.90
19397;DHT22;9834;48.076;11.878;2023-05-14T00:14:32;9.80;99.90
19397;DHT22;9834;48.076;11.878;2023-05-14T00:16:59;9.90;99.90
19397;DHT22;9834;48.076;11.878;2023-05-14T00:19:26;9.90;99.90
19397;DHT22;9834;48.076;11.878;2023-05-14T00:21:54;9.90;99.90
19397;DHT22;9834;48.076;11.878;2023-05-14T00:24:21;9.90;99.90
19397;DHT22;9834;48.076;11.878;2023-05-14T00:26:48;9.90;99.90
19397;DHT22;9834;48.076;11.878;2023-05-14T00:29:18;9.90;99.90
19397;DHT22;9834;48.076;11.878;2023-05-14T00:31:45;9.90;99.90
19397;DHT22;9834;48.076;11.878;2023-05-14T00:34:12;9.90;99.90
19397;DHT22;9834;48.076;11.878;2023-05-14T00:36:39;9.90;99.90
19397;DHT22;9834;48.076;11.878;2023-05-14T00:39:08;9.90;99.90
19397;DHT22;9834;48.076;11.878;2023-05-14T00:41:35;10.00;99.90
19397;DHT22;9834;48.076;11.878;2023-05-14T00:44:02;9.90;99.90
19397;DHT22;9834;48.076;11.878;2023-05-14T00:46:29;10.00;99.90
19397;DHT22;9834;48.076;11.878;2023-05-14T00:48:57;10.00;99.90
19397;DHT22;9834;48.076;11.878;2023-05-14T00:51:25;10.00;99.90
19397;DHT22;9834;48.076;11.878;2023-05-14T00:53:52;10.00;99.90
19397;DHT22;9834;48.076;11.878;2023-05-14T00:56:21;10.00;99.90
19397;DHT22;9834;48.076;11.878;2023-05-14T00:58:48;10.00;99.90
19397;DHT22;9834;48.076;11.878;2023-05-14T01:01:15;10.00;99.90
19397;DHT22;9834;48.076;11.878;2023-05-14T01:03:43;10.00;99.90
19397;DHT22;9834;48.076;11.878;2023-05-14T01:06:16;10.00;99.90
19397;DHT22;9834;48.076;11.878;2023-05-14T01:08:52;10.00;99.90
19397;DHT22;9834;48.076;11.878;2023-05-14T01:11:28;10.00;99.90
19397;DHT22;9834;48.076;11.878;2023-05-14T01:14:02;10.00;99.90
19397;DHT22;9834;48.076;11.878;2023-05-14T01:16:33;10.00;99.90
19397;DHT22;9834;48.076;11.878;2023-05-14T01:19:02;10.10;99.90
19397;DHT22;9834;48.076;11.878;2023-05-14T01:21:38;10.10;99.90
19397;DHT22;9834;48.076;11.878;2023-05-14T01:24:06;10.00;99.90
19397;DHT22;9834;48.076;11.878;2023-05-14T01:26:34;10.00;99.90
19397;DHT22;9834;48.076;11.878;2023-05-14T01:29:07;10.00;99.90
19397;DHT22;9834;48.076;11.878;2023-05-14T01:31:38;10.00;99.90
19397;DHT22;9834;48.076;11.878;2023-05-14T01:34:08;10.00;99.90
19397;DHT22;9834;48.076;11.878;2023-05-14T01:36:38;9.90;99.90
19397;DHT22;9834;48.076;11.878;2023-05-14T01:39:06;9.90;99.90
19397;DHT22;9834;48.076;11.878;2023-05-14T01:41:35;10.00;99.90
19397;DHT22;9834;48.076;11.878;2023-05-14T01:44:02;10.00;99.90
19397;DHT22;9834;48.076;11.878;2023-05-14T01:46:30;10.00;99.90
19397;DHT22;9834;48.076;11.878;2023-05-14T01:48:58;10.00;99.90
19397;DHT22;9834;48.076;11.878;2023-05-14T01:51:25;10.00;99.90
19397;DHT22;9834;48.076;11.878;2023-05-14T01:53:54;10.00;99.90
19397;DHT22;9834;48.076;11.878;2023-05-14T01:56:21;10.00;99.90
19397;DHT22;9834;48.076;11.878;2023-05-14T01:58:50;10.00;99.90
19397;DHT22;9834;48.076;11.878;2023-05-14T02:01:16;9.90;99.90
19397;DHT22;9834;48.076;11.878;2023-05-14T02:03:43;10.00;99.90
19397;DHT22;9834;48.076;11.878;2023-05-14T02:06:10;10.00;99.90
19397;DHT22;9834;48.076;11.878;2023-05-14T02:08:37;9.90;99.90
19397;DHT22;9834;48.076;11.878;2023-05-14T02:11:06;10.00;99.90
19397;DHT22;9834;48.076;11.878;2023-05-14T02:13:33;10.00;99.90
19397;DHT22;9834;48.076;11.878;2023-05-14T02:16:00;10.00;99.90
19397;DHT22;9834;48.076;11.878;2023-05-14T02:18:27;10.00;99.90
19397;DHT22;9834;48.076;11.878;2023-05-14T02:20:54;10.00;99.90
19397;DHT22;9834;48.076;11.878;2023-05-14T02:23:22;10.00;99.90
19397;DHT22;9834;48.076;11.878;2023-05-14T02:25:48;9.90;99.90
19397;DHT22;9834;48.076;11.878;2023-05-14T02:28:17;9.90;99.90
19397;DHT22;9834;48.076;11.878;2023-05-14T02:30:44;10.00;99.90
19397;DHT22;9834;48.076;11.878;2023-05-14T02:33:11;9.90;99.90
19397;DHT22;9834;48.076;11.878;2023-05-14T02:35:38;9.90;99.90
19397;DHT22;9834;48.076;11.878;2023-05-14T02:38:06;9.90;99.90
19397;DHT22;9834;48.076;11.878;2023-05-14T02:40:33;10.00;99.90
19397;DHT22;9834;48.076;11.878;2023-05-14T02:43:02;10.00;99.90
19397;DHT22;9834;48.076;11.878;2023-05-14T02:45:30;10.00;99.90
19397;DHT22;9834;48.076;11.878;2023-05-14T02:47:57;10.00;99.90
19397;DHT22;9834;48.076;11.878;2023-05-14T02:50:24;10.00;99.90
19397;DHT22;9834;48.076;11.878;2023-05-14T02:52:51;10.00;99.90
19397;DHT22;9834;48.076;11.878;2023-05-14T02:55:18;10.00;99.90
19397;DHT22;9834;48.076;11.878;2023-05-14T02:57:45;9.90;99.90
19397;DHT22;9834;48.076;11.878;2023-05-14T03:00:13;10.00;99.90
19397;DHT22;9834;48.076;11.878;2023-05-14T03:02:41;9.90;99.90
19397;DHT22;9834;48.076;11.878;2023-05-14T03:05:09;10.00;99.90
19397;DHT22;9834;48.076;11.878;2023-05-14T03:07:36;10.00;99.90
19397;DHT22;9834;48.076;11.878;2023-05-14T03:10:03;10.00;99.90
19397;DHT22;9834;48.076;11.878;2023-05-14T03:12:31;9.90;99.90
19397;DHT22;9834;48.076;11.878;2023-05-14T03:14:58;9.90;99.90
19397;DHT22;9834;48.076;11.878;2023-05-14T03:17:25;9.90;99.90
19397;DHT22;9834;48.076;11.878;2023-05-14T03:19:54;9.90;99.90
19397;DHT22;9834;48.076;11.878;2023-05-14T03:22:21;9.90;99.90
19397;DHT22;9834;48.076;11.878;2023-05-14T03:24:48;9.90;99.90
19397;DHT22;9834;48.076;11.878;2023-05-14T03:27:14;9.80;99.90
19397;DHT22;9834;48.076;11.878;2023-05-14T03:29:41;9.70;99.90
19397;DHT22;9834;48.076;11.878;2023-05-14T03:32:08;9.80;99.90
19397;DHT22;9834;48.076;11.878;2023-05-14T03:34:36;9.90;99.90
19397;DHT22;9834;48.076;11.878;2023-05-14T03:37:04;9.90;99.90
19397;DHT22;9834;48.076;11.878;2023-05-14T03:39:31;9.90;99.90
19397;DHT22;9834;48.076;11.878;2023-05-14T03:41:58;9.90;99.90
19397;DHT22;9834;48.076;11.878;2023-05-14T03:44:25;9.90;99.90
19397;DHT22;9834;48.076;11.878;2023-05-14T03:46:52;9.90;99.90
19397;DHT22;9834;48.076;11.878;2023-05-14T03:49:19;9.90;99.90
19397;DHT22;9834;48.076;11.878;2023-05-14T03:51:46;9.90;99.90
19397;DHT22;9834;48.076;11.878;2023-05-14T03:54:14;9.90;99.90
19397;DHT22;9834;48.076;11.878;2023-05-14T03:56:42;9.90;99.90
19397;DHT22;9834;48.076;11.878;2023-05-14T03:59:09;9.90;99.90
19397;DHT22;9834;48.076;11.878;2023-05-14T04:01:36;9.90;99.90
19397;DHT22;9834;48.076;11.878;2023-05-14T04:04:03;9.90;99.90
19397;DHT22;9834;48.076;11.878;2023-05-14T04:06:30;9.90;99.90
19397;DHT22;9834;48.076;11.878;2023-05-14T04:08:57;9.90;99.90
19397;DHT22;9834;48.076;11.878;2023-05-14T04:11:26;9.90;99.90
19397;DHT22;9834;48.076;11.878;2023-05-14T04:13:56;9.90;99.90
19397;DHT22;9834;48.076;11.878;2023-05-14T04:16:23;9.90;99.90
19397;DHT22;9834;48.076;11.878;2023-05-14T04:18:50;9.90;99.90
19397;DHT22;9834;48.076;11.878;2023-05-14T04:21:17;9.90;99.90
19397;DHT22;9834;48.076;11.878;2023-05-14T04:23:44;9.90;99.90
19397;DHT22;9834;48.076;11.878;2023-05-14T04:26:11;9.90;99.90
19397;DHT22;9834;48.076;11.878;2023-05-14T04:28:39;9.90;99.90
19397;DHT22;9834;48.076;11.878;2023-05-14T04:31:06;9.90;99.90
19397;DHT22;9834;48.076;11.878;2023-05-14T04:33:33;9.90;99.90
19397;DHT22;9834;48.076;11.878;2023-05-14T04:36:00;9.90;99.90
19397;DHT22;9834;48.076;11.878;2023-05-14T04:38:27;9.90;99.90
19397;DHT22;9834;48.076;11.878;2023-05-14T04:40:54;9.90;99.90
19397;DHT22;9834;48.076;11.878;2023-05-14T04:43:21;9.90;99.90
19397;DHT22;9834;48.076;11.878;2023-05-14T04:45:50;9.90;99.90
19397;DHT22;9834;48.076;11.878;2023-05-14T04:48:17;10.00;99.90
19397;DHT22;9834;48.076;11.878;2023-05-14T04:50:44;10.00;99.90
19397;DHT22;9834;48.076;11.878;2023-05-14T04:53:11;10.00;99.90
19397;DHT22;9834;48.076;11.878;2023-05-14T04:55:38;10.00;99.90
19397;DHT22;9834;48.076;11.878;2023-05-14T04:58:05;10.00;99.90
19397;DHT22;9834;48.076;11.878;2023-05-14T05:00:33;10.00;99.90
19397;DHT22;9834;48.076;11.878;2023-05-14T05:03:01;10.10;99.90
19397;DHT22;9834;48.076;11.878;2023-05-14T05:05:28;10.20;99.90
19397;DHT22;9834;48.076;11.878;2023-05-14T05:07:55;10.20;99.90
19397;DHT22;9834;48.076;11.878;2023-05-14T05:10:22;10.10;99.90
19397;DHT22;9834;48.076;11.878;2023-05-14T05:12:49;10.10;99.90
19397;DHT22;9834;48.076;11.878;2023-05-14T05:15:16;10.00;99.90
19397;DHT22;9834;48.076;11.878;2023-05-14T05:17:43;10.10;99.90
19397;DHT22;9834;48.076;11.878;2023-05-14T05:20:12;10.20;99.90
19397;DHT22;9834;48.076;11.878;2023-05-14T05:22:39;10.20;99.90
19397;DHT22;9834;48.076;11.878;2023-05-14T05:25:06;10.20;99.90
19397;DHT22;9834;48.076;11.878;2023-05-14T05:27:33;10.20;99.90
19397;DHT22;9834;48.076;11.878;2023-05-14T05:30:01;10.20;99.90
19397;DHT22;9834;48.076;11.878;2023-05-14T05:32:28;10.20;99.90
19397;DHT22;9834;48.076;11.878;2023-05-14T05:34:55;10.30;99.90
19397;DHT22;9834;48.076;11.878;2023-05-14T05:37:24;10.30;99.90
19397;DHT22;9834;48.076;11.878;2023-05-14T05:39:51;10.30;99.90
19397;DHT22;9834;48.076;11.878;2023-05-14T05:42:18;10.30;99.90
19397;DHT22;9834;48.076;11.878;2023-05-14T05:44:45;10.40;99.90
19397;DHT22;9834;48.076;11.878;2023-05-14T05:47:12;10.30;99.90
19397;DHT22;9834;48.076;11.878;2023-05-14T05:49:39;10.30;99.90
19397;DHT22;9834;48.076;11.878;2023-05-14T05:52:06;10.30;99.90
19397;DHT22;9834;48.076;11.878;2023-05-14T05:54:34;10.30;99.90
19397;DHT22;9834;48.076;11.878;2023-05-14T05:57:01;10.40;99.90
19397;DHT22;9834;48.076;11.878;2023-05-14T05:59:28;10.40;99.90
19397;DHT22;9834;48.076;11.878;2023-05-14T06:01:55;10.40;99.90
19397;DHT22;9834;48.076;11.878;2023-05-14T06:04:22;10.40;99.90
19397;DHT22;9834;48.076;11.878;2023-05-14T06:06:49;10.40;99.90
19397;DHT22;9834;48.076;11.878;2023-05-14T06:09:16;10.50;99.90
19397;DHT22;9834;48.076;11.878;2023-05-14T06:11:45;10.60;99.90
19397;DHT22;9834;48.076;11.878;2023-05-14T06:14:12;10.70;99.90
19397;DHT22;9834;48.076;11.878;2023-05-14T06:16:39;10.60;99.90
19397;DHT22;9834;48.076;11.878;2023-05-14T06:19:06;10.60;99.90
19397;DHT22;9834;48.076;11.878;2023-05-14T06:21:33;10.60;99.90
19397;DHT22;9834;48.076;11.878;2023-05-14T06:24:00;10.60;99.90
19397;DHT22;9834;48.076;11.878;2023-05-14T06:26:27;10.50;99.90
19397;DHT22;9834;48.076;11.878;2023-05-14T06:28:55;10.40;99.90
19397;DHT22;9834;48.076;11.878;2023-05-14T06:31:22;10.30;99.90
19397;DHT22;9834;48.076;11.878;2023-05-14T06:33:49;10.40;99.90
19397;DHT22;9834;48.076;11.878;2023-05-14T06:36:16;10.40;99.90
19397;DHT22;9834;48.076;11.878;2023-05-14T06:38:43;10.40;99.90
19397;DHT22;9834;48.076;11.878;2023-05-14T06:41:10;10.50;99.90
19397;DHT22;9834;48.076;11.878;2023-05-14T06:43:38;10.40;99.90
19397;DHT22;9834;48.076;11.878;2023-05-14T06:46:06;10.40;99.90
19397;DHT22;9834;48.076;11.878;2023-05-14T06:48:35;10.50;99.90
19397;DHT22;9834;48.076;11.878;2023-05-14T06:51:02;10.50;99.90
19397;DHT22;9834;48.076;11.878;2023-05-14T06:53:29;10.50;99.90
19397;DHT22;9834;48.076;11.878;2023-05-14T06:55:56;10.60;99.90
19397;DHT22;9834;48.076;11.878;2023-05-14T06:58:23;10.70;99.90
19397;DHT22;9834;48.076;11.878;2023-05-14T07:00:51;10.70;99.90
19397;DHT22;9834;48.076;11.878;2023-05-14T07:03:20;10.80;99.90
19397;DHT22;9834;48.076;11.878;2023-05-14T07:05:47;10.80;99.90
19397;DHT22;9834;48.076;11.878;2023-05-14T07:08:14;10.80;99.90
19397;DHT22;9834;48.076;11.878;2023-05-14T07:10:41;10.90;99.90
19397;DHT22;9834;48.076;11.878;2023-05-14T07:13:08;11.00;99.90
19397;DHT22;9834;48.076;11.878;2023-05-14T07:15:35;11.20;99.90
19397;DHT22;9834;48.076;11.878;2023-05-14T07:18:02;11.40;99.90
19397;DHT22;9834;48.076;11.878;2023-05-14T07:20:31;11.60;99.90
19397;DHT22;9834;48.076;11.878;2023-05-14T07:22:58;11.90;99.90
19397;DHT22;9834;48.076;11.878;2023-05-14T07:25:25;12.20;99.90
19397;DHT22;9834;48.076;11.878;2023-05-14T07:27:52;12.40;99.90
19397;DHT22;9834;48.076;11.878;2023-05-14T07:30:19;12.20;99.90
19397;DHT22;9834;48.076;11.878;2023-05-14T07:32:46;12.20;99.90
19397;DHT22;9834;48.076;11.878;2023-05-14T07:35:13;12.10;99.90
19397;DHT22;9834;48.076;11.878;2023-05-14T07:37:41;12.10;99.90
19397;DHT22;9834;48.076;11.878;2023-05-14T07:40:09;12.10;99.90
19397;DHT22;9834;48.076;11.878;2023-05-14T07:42:36;12.30;99.90
19397;DHT22;9834;48.076;11.878;2023-05-14T07:45:04;12.60;99.90
19397;DHT22;9834;48.076;11.878;2023-05-14T07:47:31;12.70;99.90
19397;DHT22;9834;48.076;11.878;2023-05-14T07:49:58;12.80;99.90
19397;DHT22;9834;48.076;11.878;2023-05-14T07:52:25;12.90;99.90
19397;DHT22;9834;48.076;11.878;2023-05-14T07:54:54;13.00;99.90
19397;DHT22;9834;48.076;11.878;2023-05-14T07:57:21;12.80;99.90
19397;DHT22;9834;48.076;11.878;2023-05-14T07:59:48;12.60;99.90
19397;DHT22;9834;48.076;11.878;2023-05-14T08:02:15;12.50;99.90
19397;DHT22;9834;48.076;11.878;2023-05-14T08:04:42;12.60;99.90
19397;DHT22;9834;48.076;11.878;2023-05-14T08:07:10;12.60;99.90
19397;DHT22;9834;48.076;11.878;2023-05-14T08:09:37;12.60;99.90
19397;DHT22;9834;48.076;11.878;2023-05-14T08:12:06;12.40;99.90
19397;DHT22;9834;48.076;11.878;2023-05-14T08:14:33;12.50;99.90
19397;DHT22;9834;48.076;11.878;2023-05-14T08:17:00;12.60;99.90
19397;DHT22;9834;48.076;11.878;2023-05-14T08:19:27;12.70;99.90
19397;DHT22;9834;48.076;11.878;2023-05-14T08:21:54;12.60;99.90
19397;DHT22;9834;48.076;11.878;2023-05-14T08:24:22;12.70;99.90
19397;DHT22;9834;48.076;11.878;2023-05-14T08:26:49;12.60;99.90
19397;DHT22;9834;48.076;11.878;2023-05-14T08:29:18;12.60;99.90
19397;DHT22;9834;48.076;11.878;2023-05-14T08:31:45;12.60;99.90
19397;DHT22;9834;48.076;11.878;2023-05-14T08:34:12;12.60;99.90
19397;DHT22;9834;48.076;11.878;2023-05-14T08:36:39;12.60;99.90
19397;DHT22;9834;48.076;11.878;2023-05-14T08:39:06;12.60;99.90
19397;DHT22;9834;48.076;11.878;2023-05-14T08:41:34;12.50;99.90
19397;DHT22;9834;48.076;11.878;2023-05-14T08:44:06;12.50;99.90
19397;DHT22;9834;48.076;11.878;2023-05-14T08:46:42;12.60;99.90
19397;DHT22;9834;48.076;11.878;2023-05-14T08:49:14;12.60;99.90
19397;DHT22;9834;48.076;11.878;2023-05-14T08:51:45;12.80;99.90
19397;DHT22;9834;48.076;11.878;2023-05-14T08:54:14;12.80;99.90
19397;DHT22;9834;48.076;11.878;2023-05-14T08:56:47;12.90;99.90
19397;DHT22;9834;48.076;11.878;2023-05-14T08:59:14;12.90;99.90
19397;DHT22;9834;48.076;11.878;2023-05-14T09:01:46;13.00;99.90
19397;DHT22;9834;48.076;11.878;2023-05-14T09:04:15;12.80;99.90
19397;DHT22;9834;48.076;11.878;2023-05-14T09:06:47;12.70;99.90
19397;DHT22;9834;48.076;11.878;2023-05-14T09:09:15;12.60;99.90
19397;DHT22;9834;48.076;11.878;2023-05-14T09:11:44;12.70;99.90
19397;DHT22;9834;48.076;11.878;2023-05-14T09:14:12;12.70;99.90
19397;DHT22;9834;48.076;11.878;2023-05-14T09:16:40;12.60;99.90
19397;DHT22;9834;48.076;11.878;2023-05-14T09:19:09;12.70;99.90
19397;DHT22;9834;48.076;11.878;2023-05-14T09:21:36;12.80;99.90
19397;DHT22;9834;48.076;11.878;2023-05-14T09:24:03;12.90;99.90
19397;DHT22;9834;48.076;11.878;2023-05-14T09:26:31;13.20;99.90
19397;DHT22;9834;48.076;11.878;2023-05-14T09:29:00;13.40;99.90
19397;DHT22;9834;48.076;11.878;2023-05-14T09:31:28;13.60;99.90
19397;DHT22;9834;48.076;11.878;2023-05-14T09:33:58;13.40;99.90
19397;DHT22;9834;48.076;11.878;2023-05-14T09:36:26;13.40;99.90
19397;DHT22;9834;48.076;11.878;2023-05-14T09:38:55;13.30;99.90
19397;DHT22;9834;48.076;11.878;2023-05-14T09:41:23;13.30;99.90
19397;DHT22;9834;48.076;11.878;2023-05-14T09:43:50;13.30;99.90
19397;DHT22;9834;48.076;11.878;2023-05-14T09:46:17;13.40;99.90
19397;DHT22;9834;48.076;11.878;2023-05-14T09:48:44;13.60;99.90
19397;DHT22;9834;48.076;11.878;2023-05-14T09:51:12;13.70;99.90
19397;DHT22;9834;48.076;11.878;2023-05-14T09:53:42;14.00;99.90
19397;DHT22;9834;48.076;11.878;2023-05-14T09:56:10;14.10;99.90
19397;DHT22;9834;48.076;11.878;2023-05-14T09:58:38;14.20;99.90
19397;DHT22;9834;48.076;11.878;2023-05-14T10:01:05;14.00;99.90
19397;DHT22;9834;48.076;11.878;2023-05-14T10:03:35;13.90;99.90
19397;DHT22;9834;48.076;11.878;2023-05-14T10:06:04;14.00;99.90
19397;DHT22;9834;48.076;11.878;2023-05-14T10:08:34;14.10;99.90
19397;DHT22;9834;48.076;11.878;2023-05-14T10:11:05;13.90;99.90
19397;DHT22;9834;48.076;11.878;2023-05-14T10:13:38;14.00;99.90
19397;DHT22;9834;48.076;11.878;2023-05-14T10:16:10;14.10;99.90
19397;DHT22;9834;48.076;11.878;2023-05-14T10:18:42;14.50;99.90
19397;DHT22;9834;48.076;11.878;2023-05-14T10:21:13;15.10;99.90
19397;DHT22;9834;48.076;11.878;2023-05-14T10:23:41;15.50;99.90
19397;DHT22;9834;48.076;11.878;2023-05-14T10:26:11;15.60;99.90
19397;DHT22;9834;48.076;11.878;2023-05-14T10:28:38;15.70;99.90
19397;DHT22;9834;48.076;11.878;2023-05-14T10:31:08;15.50;99.90
19397;DHT22;9834;48.076;11.878;2023-05-14T10:33:45;15.40;99.90
19397;DHT22;9834;48.076;11.878;2023-05-14T10:36:14;15.10;99.90
19397;DHT22;9834;48.076;11.878;2023-05-14T10:38:42;15.30;99.90
19397;DHT22;9834;48.076;11.878;2023-05-14T10:41:12;15.30;99.90
19397;DHT22;9834;48.076;11.878;2023-05-14T10:43:42;15.80;99.90
19397;DHT22;9834;48.076;11.878;2023-05-14T10:46:11;16.60;99.90
19397;DHT22;9834;48.076;11.878;2023-05-14T10:48:40;17.30;99.90
19397;DHT22;9834;48.076;11.878;2023-05-14T10:51:08;17.30;98.90
19397;DHT22;9834;48.076;11.878;2023-05-14T10:53:37;17.60;99.90
19397;DHT22;9834;48.076;11.878;2023-05-14T10:56:05;17.60;99.10
19397;DHT22;9834;48.076;11.878;2023-05-14T10:58:38;17.60;98.80
19397;DHT22;9834;48.076;11.878;2023-05-14T11:01:06;17.50;97.90
19397;DHT22;9834;48.076;11.878;2023-05-14T11:03:39;17.20;96.20
19397;DHT22;9834;48.076;11.878;2023-05-14T11:06:07;16.80;96.70
19397;DHT22;9834;48.076;11.878;2023-05-14T11:08:36;16.90;97.80
19397;DHT22;9834;48.076;11.878;2023-05-14T11:11:03;16.90;96.60
19397;DHT22;9834;48.076;11.878;2023-05-14T11:13:31;17.00;97.20
19397;DHT22;9834;48.076;11.878;2023-05-14T11:16:02;17.30;96.00
19397;DHT22;9834;48.076;11.878;2023-05-14T11:18:30;17.60;96.80
19397;DHT22;9834;48.076;11.878;2023-05-14T11:20:58;18.20;95.40
19397;DHT22;9834;48.076;11.878;2023-05-14T11:23:25;18.80;89.50
19397;DHT22;9834;48.076;11.878;2023-05-14T11:25:53;18.90;86.30
19397;DHT22;9834;48.076;11.878;2023-05-14T11:28:20;19.90;88.30
19397;DHT22;9834;48.076;11.878;2023-05-14T11:30:48;21.40;78.70
19397;DHT22;9834;48.076;11.878;2023-05-14T11:33:17;22.20;72.30
19397;DHT22;9834;48.076;11.878;2023-05-14T11:35:44;21.80;70.50
19397;DHT22;9834;48.076;11.878;2023-05-14T11:38:13;21.90;69.60
19397;DHT22;9834;48.076;11.878;2023-05-14T11:40:40;21.20;70.80
19397;DHT22;9834;48.076;11.878;2023-05-14T11:43:07;21.10;71.90
19397;DHT22;9834;48.076;11.878;2023-05-14T11:45:34;20.90;68.30
19397;DHT22;9834;48.076;11.878;2023-05-14T11:48:10;20.60;68.70
19397;DHT22;9834;48.076;11.878;2023-05-14T11:50:39;19.80;71.00
19397;DHT22;9834;48.076;11.878;2023-05-14T11:53:06;19.70;72.30
19397;DHT22;9834;48.076;11.878;2023-05-14T11:55:33;19.30;72.80
19397;DHT22;9834;48.076;11.878;2023-05-14T11:58:01;19.80;71.00
19397;DHT22;9834;48.076;11.878;2023-05-14T12:00:28;21.10;68.40
19397;DHT22;9834;48.076;11.878;2023-05-14T12:02:55;23.00;67.60
19397;DHT22;9834;48.076;11.878;2023-05-14T12:05:23;24.90;63.70
19397;DHT22;9834;48.076;11.878;2023-05-14T12:07:52;24.70;59.20
19397;DHT22;9834;48.076;11.878;2023-05-14T12:10:20;23.40;54.90
19397;DHT22;9834;48.076;11.878;2023-05-14T12:12:48;23.70;55.90
19397;DHT22;9834;48.076;11.878;2023-05-14T12:15:15;25.00;57.30
19397;DHT22;9834;48.076;11.878;2023-05-14T12:17:48;26.00;52.80
19397;DHT22;9834;48.076;11.878;2023-05-14T12:20:16;25.00;54.40
19397;DHT22;9834;48.076;11.878;2023-05-14T12:22:43;24.50;52.40
19397;DHT22;9834;48.076;11.878;2023-05-14T12:25:12;23.40;57.40
19397;DHT22;9834;48.076;11.878;2023-05-14T12:27:39;24.60;58.20
19397;DHT22;9834;48.076;11.878;2023-05-14T12:30:07;25.70;50.50
19397;DHT22;9834;48.076;11.878;2023-05-14T12:32:36;26.80;48.50
19397;DHT22;9834;48.076;11.878;2023-05-14T12:35:04;28.20;51.30
19397;DHT22;9834;48.076;11.878;2023-05-14T12:37:31;28.50;47.80
19397;DHT22;9834;48.076;11.878;2023-05-14T12:40:00;28.20;44.70
19397;DHT22;9834;48.076;11.878;2023-05-14T12:42:29;27.20;47.00
19397;DHT22;9834;48.076;11.878;2023-05-14T12:44:55;25.60;48.30
19397;DHT22;9834;48.076;11.878;2023-05-14T12:47:24;24.50;53.00
19397;DHT22;9834;48.076;11.878;2023-05-14T12:49:51;23.60;54.10
19397;DHT22;9834;48.076;11.878;2023-05-14T12:52:18;23.00;55.90
19397;DHT22;9834;48.076;11.878;2023-05-14T12:54:45;21.80;57.10
19397;DHT22;9834;48.076;11.878;2023-05-14T12:57:12;21.40;55.30
19397;DHT22;9834;48.076;11.878;2023-05-14T12:59:40;21.20;57.40
19397;DHT22;9834;48.076;11.878;2023-05-14T13:02:07;21.30;57.50
19397;DHT22;9834;48.076;11.878;2023-05-14T13:04:35;20.70;58.70
19397;DHT22;9834;48.076;11.878;2023-05-14T13:07:02;20.70;58.20
19397;DHT22;9834;48.076;11.878;2023-05-14T13:09:30;20.80;58.20
19397;DHT22;9834;48.076;11.878;2023-05-14T13:11:57;20.70;61.10
19397;DHT22;9834;48.076;11.878;2023-05-14T13:14:26;20.90;59.90
19397;DHT22;9834;48.076;11.878;2023-05-14T13:16:54;21.40;57.30
19397;DHT22;9834;48.076;11.878;2023-05-14T13:19:21;21.80;59.70
19397;DHT22;9834;48.076;11.878;2023-05-14T13:21:48;22.00;56.00
19397;DHT22;9834;48.076;11.878;2023-05-14T13:24:15;21.90;58.50
19397;DHT22;9834;48.076;11.878;2023-05-14T13:26:43;21.40;55.70
19397;DHT22;9834;48.076;11.878;2023-05-14T13:29:10;20.60;61.20
19397;DHT22;9834;48.076;11.878;2023-05-14T13:31:37;20.00;62.40
19397;DHT22;9834;48.076;11.878;2023-05-14T13:34:05;19.80;61.90
19397;DHT22;9834;48.076;11.878;2023-05-14T13:36:32;19.70;62.70
19397;DHT22;9834;48.076;11.878;2023-05-14T13:39:04;19.70;63.90
19397;DHT22;9834;48.076;11.878;2023-05-14T13:41:31;19.50;64.80
19397;DHT22;9834;48.076;11.878;2023-05-14T13:44:00;19.30;65.10
19397;DHT22;9834;48.076;11.878;2023-05-14T13:46:27;19.10;67.80
19397;DHT22;9834;48.076;11.878;2023-05-14T13:48:54;19.40;67.30
19397;DHT22;9834;48.076;11.878;2023-05-14T13:51:22;20.10;65.00
19397;DHT22;9834;48.076;11.878;2023-05-14T13:53:49;20.70;64.40
19397;DHT22;9834;48.076;11.878;2023-05-14T13:56:16;21.10;62.80
19397;DHT22;9834;48.076;11.878;2023-05-14T13:58:43;21.70;61.60
19397;DHT22;9834;48.076;11.878;2023-05-14T14:01:10;22.10;59.50
19397;DHT22;9834;48.076;11.878;2023-05-14T14:03:37;22.10;61.10
19397;DHT22;9834;48.076;11.878;2023-05-14T14:06:05;21.70;59.60
19397;DHT22;9834;48.076;11.878;2023-05-14T14:08:34;21.40;61.00
19397;DHT22;9834;48.076;11.878;2023-05-14T14:11:01;21.70;60.20
19397;DHT22;9834;48.076;11.878;2023-05-14T14:13:29;23.10;58.60
19397;DHT22;9834;48.076;11.878;2023-05-14T14:15:56;24.30;54.30
19397;DHT22;9834;48.076;11.878;2023-05-14T14:18:23;24.30;54.00
19397;DHT22;9834;48.076;11.878;2023-05-14T14:20:49;25.70;55.90
19397;DHT22;9834;48.076;11.878;2023-05-14T14:23:17;28.00;48.70
19397;DHT22;9834;48.076;11.878;2023-05-14T14:25:45;30.40;46.00
19397;DHT22;9834;48.076;11.878;2023-05-14T14:28:13;31.70;41.00
19397;DHT22;9834;48.076;11.878;2023-05-14T14:30:41;32.40;37.10
19397;DHT22;9834;48.076;11.878;2023-05-14T14:33:08;33.60;37.70
19397;DHT22;9834;48.076;11.878;2023-05-14T14:35:35;34.10;33.30
19397;DHT22;9834;48.076;11.878;2023-05-14T14:38:03;33.60;33.50
19397;DHT22;9834;48.076;11.878;2023-05-14T14:40:31;33.50;39.20
19397;DHT22;9834;48.076;11.878;2023-05-14T14:43:00;34.00;33.70
19397;DHT22;9834;48.076;11.878;2023-05-14T14:45:27;33.40;37.10
19397;DHT22;9834;48.076;11.878;2023-05-14T14:48:22;33.60;33.60
19397;DHT22;9834;48.076;11.878;2023-05-14T14:50:49;33.80;35.50
19397;DHT22;9834;48.076;11.878;2023-05-14T14:53:16;31.60;35.70
19397;DHT22;9834;48.076;11.878;2023-05-14T14:55:43;28.80;38.00
19397;DHT22;9834;48.076;11.878;2023-05-14T14:58:12;28.40;39.90
19397;DHT22;9834;48.076;11.878;2023-05-14T15:00:39;30.50;38.10
19397;DHT22;9834;48.076;11.878;2023-05-14T15:03:06;31.70;34.80
19397;DHT22;9834;48.076;11.878;2023-05-14T15:08:00;30.20;39.90
19397;DHT22;9834;48.076;11.878;2023-05-14T15:10:28;30.70;41.40
19397;DHT22;9834;48.076;11.878;2023-05-14T15:12:56;31.80;38.50
19397;DHT22;9834;48.076;11.878;2023-05-14T15:15:29;31.50;37.40
19397;DHT22;9834;48.076;11.878;2023-05-14T15:17:56;29.90;39.20
19397;DHT22;9834;48.076;11.878;2023-05-14T15:20:24;27.60;44.20
19397;DHT22;9834;48.076;11.878;2023-05-14T15:22:51;25.20;48.40
19397;DHT22;9834;48.076;11.878;2023-05-14T15:25:18;23.20;49.90
19397;DHT22;9834;48.076;11.878;2023-05-14T15:27:45;20.10;54.40
19397;DHT22;9834;48.076;11.878;2023-05-14T15:30:14;18.20;59.20
19397;DHT22;9834;48.076;11.878;2023-05-14T15:32:43;16.80;64.70
19397;DHT22;9834;48.076;11.878;2023-05-14T15:35:13;15.90;70.30
19397;DHT22;9834;48.076;11.878;2023-05-14T15:37:42;15.10;72.20
19397;DHT22;9834;48.076;11.878;2023-05-14T15:40:10;14.70;74.20